»·PEaware :: AAY115 KBZN-KLAS

AAY115 :: KBZN-KLAS

FLIGHT INFORMATION

Flight Status: Arrived
Operator:
Allegiant Air
More flights by this operator :: More flights under this callsign
Pilot: Henderson P. (1210)
Aircraft: AIRBUS A319
(A319)
More flights by this aircraft type
Origin: KBZN Gallatin
United States
Destination: KLAS McCarran Intl
United States
More flights between these airports :: More routes between these airports
Route: +TEERX4 DBS J9 FRNZY MPIRE SITEE3
File this flight plan on PilotEdge
Remarks:
Altitude:
(Current/Filed)
32,000ft
Speed:
(Current/Filed)
428kts
Departed: 18-Oct-18 02:43 PM
Arrived: 18-Oct-18 04:21 PM
Distance/Time
Traveled:
609nm/1:37
Distance/Time
To Go:
Arrived

Flight Plot

Page will automatically refresh every two minutes.

Flight plan parsing failed; only flown route is shown


Map Options




Map Legend


Flown Route
Filed Route
Departure Airport
Arrival Airport
Navaid (VOR, NDB)
Fix

Horizontal Profiles

Position Reports

Time Latitude Longitude Heading Altitude Ground
Speed
18-Oct-18 14:16 45.778221 -111.159760 247 4485ft 0kts
18-Oct-18 14:17 45.778221 -111.159760 247 4485ft 0kts
18-Oct-18 14:18 45.778221 -111.159760 247 4485ft 0kts
18-Oct-18 14:19 45.778221 -111.159760 247 4485ft 0kts
18-Oct-18 14:20 45.778221 -111.159760 247 4485ft 0kts
18-Oct-18 14:21 45.778221 -111.159760 247 4485ft 0kts
18-Oct-18 14:22 45.778221 -111.159760 247 4485ft 0kts
18-Oct-18 14:23 45.778221 -111.159760 247 4485ft 0kts
18-Oct-18 14:24 45.778221 -111.159760 247 4485ft 0kts
18-Oct-18 14:25 45.778221 -111.159760 247 4485ft 0kts
18-Oct-18 14:26 45.778221 -111.159760 247 4485ft 0kts
18-Oct-18 14:27 45.778221 -111.159760 247 4485ft 0kts
18-Oct-18 14:28 45.778221 -111.159760 247 4485ft 0kts
18-Oct-18 14:29 45.778221 -111.159760 247 4485ft 0kts
18-Oct-18 14:30 45.778221 -111.159760 247 4485ft 0kts
18-Oct-18 14:31 45.778221 -111.159760 247 4485ft 0kts
18-Oct-18 14:32 45.778221 -111.159760 247 4485ft 0kts
18-Oct-18 14:33 45.778221 -111.159760 247 4485ft 0kts
18-Oct-18 14:34 45.778221 -111.159760 247 4485ft 0kts
18-Oct-18 14:35 45.778221 -111.159760 247 4485ft 0kts
18-Oct-18 14:36 45.778221 -111.159760 247 4485ft 0kts
18-Oct-18 14:37 45.778373 -111.158936 276 4485ft 2kts
18-Oct-18 14:38 45.778238 -111.158581 315 4485ft 0kts
18-Oct-18 14:39 45.778238 -111.158581 315 4485ft 0kts
18-Oct-18 14:40 45.779566 -111.159018 359 4485ft 9kts
18-Oct-18 14:41 45.781726 -111.161747 315 4485ft 12kts
18-Oct-18 14:42 45.784923 -111.166203 315 4485ft 18kts
18-Oct-18 14:43 45.787204 -111.167579 46 4485ft 5kts
18-Oct-18 14:44 45.787328 -111.167390 46 4485ft 0kts
18-Oct-18 14:45 45.780727 -111.156244 135 4485ft 137kts
18-Oct-18 14:46 45.750112 -111.122130 177 5841ft 186kts
18-Oct-18 14:47 45.711212 -111.181792 238 7127ft 248kts
18-Oct-18 14:48 45.708589 -111.303400 280 10194ft 284kts
18-Oct-18 14:49 45.720151 -111.403724 280 11758ft 331kts
18-Oct-18 14:50 45.732735 -111.541176 265 14123ft 361kts
18-Oct-18 14:51 45.667492 -111.647033 191 16498ft 392kts
18-Oct-18 14:52 45.556573 -111.653836 182 18711ft 406kts
18-Oct-18 14:53 45.442045 -111.663277 182 20720ft 418kts
18-Oct-18 14:54 45.323693 -111.671829 182 22526ft 432kts
18-Oct-18 14:55 45.201989 -111.680943 182 24164ft 444kts
18-Oct-18 14:56 45.076705 -111.690214 182 25683ft 455kts
18-Oct-18 14:57 44.948970 -111.699647 182 27149ft 465kts
18-Oct-18 14:58 44.818625 -111.709191 182 28598ft 474kts
18-Oct-18 14:59 44.687650 -111.718837 182 30557ft 468kts
18-Oct-18 15:00 44.557999 -111.728251 182 32140ft 466kts
18-Oct-18 15:01 44.429256 -111.737625 182 32278ft 464kts
18-Oct-18 15:02 44.300089 -111.746934 182 32281ft 464kts
18-Oct-18 15:03 44.171109 -111.756209 182 32284ft 464kts
18-Oct-18 15:04 44.042304 -111.765435 182 32282ft 464kts
18-Oct-18 15:05 43.913395 -111.774560 182 32295ft 464kts
18-Oct-18 15:06 43.784241 -111.783766 181 32304ft 464kts
18-Oct-18 15:07 43.655395 -111.792949 181 32317ft 464kts
18-Oct-18 15:08 43.526526 -111.801949 181 32319ft 464kts
18-Oct-18 15:09 43.397480 -111.810964 181 32322ft 464kts
18-Oct-18 15:10 43.268699 -111.819910 181 32328ft 464kts
18-Oct-18 15:11 43.139390 -111.828905 181 32321ft 464kts
18-Oct-18 15:12 43.009808 -111.837830 181 32270ft 466kts
18-Oct-18 15:13 42.880492 -111.846771 181 32278ft 467kts
18-Oct-18 15:14 42.750495 -111.855666 180 32316ft 468kts
18-Oct-18 15:15 42.619684 -111.864543 180 32336ft 469kts
18-Oct-18 15:16 42.489021 -111.873484 180 32334ft 471kts
18-Oct-18 15:17 42.358364 -111.882306 180 32327ft 472kts
18-Oct-18 15:18 42.226648 -111.891211 180 32340ft 473kts
18-Oct-18 15:19 42.095194 -111.900032 180 32337ft 474kts
18-Oct-18 15:20 41.963396 -111.908879 180 32336ft 474kts
18-Oct-18 15:21 41.831538 -111.917642 180 32336ft 474kts
18-Oct-18 15:22 41.699871 -111.926352 180 32341ft 473kts
18-Oct-18 15:23 41.568507 -111.935045 180 32350ft 471kts
18-Oct-18 15:24 41.437920 -111.943645 180 32356ft 469kts
18-Oct-18 15:25 41.307878 -111.952135 180 32354ft 467kts
18-Oct-18 15:26 41.178582 -111.960607 181 32357ft 464kts
18-Oct-18 15:27 41.055954 -111.968515 181 32356ft 462kts
18-Oct-18 15:28 40.927889 -111.976862 181 32350ft 460kts
18-Oct-18 15:29 40.800223 -111.978755 175 32298ft 458kts
18-Oct-18 15:30 40.672838 -111.968699 175 32288ft 457kts
18-Oct-18 15:31 40.545855 -111.959832 175 32308ft 458kts
18-Oct-18 15:32 40.418251 -111.950677 175 32369ft 458kts
18-Oct-18 15:33 40.290928 -111.943085 183 32360ft 460kts
18-Oct-18 15:34 40.171649 -112.000979 206 32336ft 460kts
18-Oct-18 15:35 40.055167 -112.069542 204 32357ft 460kts
18-Oct-18 15:36 39.938309 -112.138189 204 32358ft 460kts
18-Oct-18 15:37 39.821790 -112.207537 204 32370ft 461kts
18-Oct-18 15:38 39.705035 -112.276556 205 32371ft 460kts
18-Oct-18 15:39 39.588608 -112.345167 205 32376ft 459kts
18-Oct-18 15:40 39.472387 -112.413353 205 32373ft 458kts
18-Oct-18 15:41 39.356614 -112.481089 205 32373ft 456kts
18-Oct-18 15:42 39.240927 -112.548397 206 32369ft 455kts
18-Oct-18 15:43 39.125257 -112.615591 206 32372ft 454kts
18-Oct-18 15:44 39.010218 -112.682100 206 32374ft 453kts
18-Oct-18 15:45 38.895125 -112.748426 206 32374ft 452kts
18-Oct-18 15:46 38.780660 -112.814186 206 32368ft 450kts
18-Oct-18 15:47 38.666247 -112.879679 206 32315ft 450kts
18-Oct-18 15:48 38.552233 -112.944712 207 32293ft 449kts
18-Oct-18 15:49 38.437600 -113.009823 207 32282ft 449kts
18-Oct-18 15:50 38.323536 -113.074410 207 32274ft 449kts
18-Oct-18 15:51 38.209219 -113.138958 207 32268ft 450kts
18-Oct-18 15:52 38.094295 -113.203538 207 32357ft 450kts
18-Oct-18 15:53 37.979525 -113.267983 207 32355ft 452kts
18-Oct-18 15:54 37.865050 -113.331810 207 32348ft 446kts
18-Oct-18 15:55 37.752142 -113.394689 208 32297ft 438kts
18-Oct-18 15:56 37.639856 -113.457044 207 32298ft 445kts
18-Oct-18 15:57 37.526951 -113.520485 209 32294ft 443kts
18-Oct-18 15:58 37.415980 -113.587142 209 31946ft 432kts
18-Oct-18 15:59 37.308769 -113.651287 209 30653ft 423kts
18-Oct-18 16:00 37.202929 -113.714416 209 28481ft 417kts
18-Oct-18 16:01 37.098933 -113.776267 209 26303ft 411kts
18-Oct-18 16:02 36.996152 -113.837169 209 24194ft 405kts
18-Oct-18 16:03 36.895325 -113.896772 208 22241ft 396kts
18-Oct-18 16:04 36.796997 -113.954615 208 20396ft 382kts
18-Oct-18 16:05 36.703272 -114.009788 208 18660ft 365kts
18-Oct-18 16:06 36.613313 -114.062478 207 16942ft 352kts
18-Oct-18 16:07 36.545974 -114.140375 242 15426ft 330kts
18-Oct-18 16:08 36.499057 -114.234685 241 14416ft 313kts
18-Oct-18 16:09 36.453096 -114.324026 241 13396ft 303kts
18-Oct-18 16:10 36.408580 -114.410855 241 12391ft 300kts
18-Oct-18 16:11 36.362915 -114.499426 240 11603ft 301kts
18-Oct-18 16:12 36.318661 -114.585431 239 10521ft 289kts
18-Oct-18 16:13 36.259889 -114.648216 197 9491ft 288kts
18-Oct-18 16:14 36.183825 -114.679779 199 8476ft 295kts
18-Oct-18 16:15 36.110291 -114.711414 199 7994ft 253kts
18-Oct-18 16:16 36.074076 -114.770130 269 7978ft 229kts
18-Oct-18 16:17 36.073813 -114.849614 271 6576ft 223kts
18-Oct-18 16:18 36.073792 -114.922101 271 5462ft 208kts
18-Oct-18 16:19 36.073746 -114.990617 271 4400ft 179kts
18-Oct-18 16:20 36.073707 -115.045258 271 3496ft 140kts
18-Oct-18 16:21 36.073678 -115.093325 272 2731ft 138kts
18-Oct-18 16:22 36.073665 -115.140535 269 2195ft 103kts
18-Oct-18 16:23 36.075195 -115.151217 330 2195ft 9kts
18-Oct-18 16:24 36.077926 -115.152864 335 2195ft 8kts
18-Oct-18 16:25 36.081516 -115.154930 336 2195ft 14kts
18-Oct-18 16:26 36.084022 -115.153814 64 2195ft 12kts
18-Oct-18 16:27 36.084809 -115.152440 50 2195ft 0kts
18-Oct-18 16:28 36.084820 -115.152423 50 2195ft 0kts
18-Oct-18 16:29 36.084820 -115.152423 50 2195ft 0kts
18-Oct-18 16:30 36.084820 -115.152423 50 2195ft 0kts
18-Oct-18 16:31 36.084820 -115.152423 50 2195ft 0kts

Navigation Log

Ident Type
Flight plan parsing failed, navigation log unavailable